createdAt,value
2019-06-07T00:03:24.005Z,11.47
2019-06-07T00:07:23.059Z,11.40
2019-06-07T00:11:31.039Z,11.00
2019-06-07T00:15:39.474Z,12.73
2019-06-07T00:19:47.196Z,10.60
2019-06-07T00:23:55.356Z,10.77
2019-06-07T00:28:03.205Z,9.53
2019-06-07T00:32:11.741Z,10.30
2019-06-07T00:36:23.256Z,9.57
2019-06-07T00:40:32.447Z,10.97
2019-06-07T00:44:40.547Z,12.37
2019-06-07T00:48:48.616Z,10.37
2019-06-07T00:53:14.576Z,10.33
2019-06-07T00:57:06.920Z,10.93
2019-06-07T01:01:17.582Z,11.17
2019-06-07T01:05:31.120Z,10.57
2019-06-07T01:09:34.884Z,9.93
2019-06-07T01:13:42.551Z,10.80
2019-06-07T01:18:32.930Z,11.20
2019-06-07T01:22:00.828Z,10.93
2019-06-07T01:26:09.567Z,10.27
2019-06-07T01:30:19.039Z,12.10
2019-06-07T01:34:29.092Z,9.93
2019-06-07T01:38:36.818Z,10.73
2019-06-07T01:42:44.939Z,11.50
2019-06-07T01:46:52.953Z,12.17
2019-06-07T01:51:01.169Z,11.53
2019-06-07T01:55:09.556Z,11.63
2019-06-07T01:59:17.801Z,15.00
2019-06-07T02:03:29.362Z,13.37
2019-06-07T02:07:35.478Z,11.80
2019-06-07T02:11:43.237Z,11.83
2019-06-07T02:15:51.432Z,12.50
2019-06-07T02:19:58.822Z,10.87
2019-06-07T02:24:07.075Z,12.03
2019-06-07T02:28:31.975Z,10.97
2019-06-07T02:32:28.863Z,12.23
2019-06-07T02:36:40.905Z,17.40
2019-06-07T02:40:45.128Z,15.07
2019-06-07T02:44:52.999Z,11.70
2019-06-07T02:49:00.611Z,12.03
2019-06-07T02:53:08.315Z,11.47
2019-06-07T02:57:17.404Z,11.23
2019-06-07T03:01:28.556Z,10.33
2019-06-07T03:05:40.292Z,9.33
2019-06-07T03:09:47.153Z,11.50
2019-06-07T03:13:57.073Z,15.13
2019-06-07T03:18:11.622Z,16.77
2019-06-07T03:22:19.674Z,17.63
2019-06-07T03:26:30.421Z,19.20
2019-06-07T03:30:52.254Z,20.60
2019-06-07T03:34:47.186Z,17.70
2019-06-07T03:38:55.609Z,29.37
2019-06-07T03:43:03.551Z,25.67
2019-06-07T03:47:11.131Z,27.77
2019-06-07T03:51:25.157Z,27.17
2019-06-07T03:55:30.553Z,24.13
2019-06-07T03:59:40.952Z,24.33
2019-06-07T04:03:51.793Z,25.33
2019-06-07T04:07:57.459Z,23.40
2019-06-07T04:12:05.346Z,96.47
2019-06-07T04:16:13.348Z,32.77
2019-06-07T04:20:21.400Z,25.30
2019-06-07T04:24:31.032Z,23.30
2019-06-07T04:29:30.741Z,26.63
2019-06-07T04:32:49.666Z,27.63
2019-06-07T04:36:59.766Z,21.77
2019-06-07T04:41:08.226Z,21.93
2019-06-07T04:45:33.013Z,21.20
2019-06-07T04:49:27.146Z,27.77
2019-06-07T04:53:38.103Z,29.17
2019-06-07T04:57:44.737Z,28.27
2019-06-07T05:01:53.006Z,28.63
2019-06-07T05:06:01.164Z,30.80
2019-06-07T05:10:09.560Z,30.83
2019-06-07T05:14:17.571Z,32.78
2019-06-07T05:18:26.328Z,30.47
2019-06-07T05:22:38.910Z,31.27
2019-06-07T05:26:43.858Z,35.33
2019-06-07T05:31:08.126Z,32.13
2019-06-07T05:35:02.393Z,30.80
2019-06-07T05:39:10.781Z,28.70
2019-06-07T05:43:26.493Z,34.63
2019-06-07T05:47:38.443Z,26.70
2019-06-07T05:51:45.068Z,31.57
2019-06-07T05:55:53.731Z,35.95
2019-06-07T06:00:01.765Z,35.10
2019-06-07T06:04:09.783Z,38.60
2019-06-07T06:08:17.834Z,41.30
2019-06-07T06:12:35.351Z,35.48
2019-06-07T06:16:37.196Z,33.45
2019-06-07T06:21:09.795Z,22.87
2019-06-07T06:25:30.118Z,19.27
2019-06-07T06:29:05.295Z,22.75
2019-06-07T06:33:30.781Z,21.73
2019-06-07T06:37:23.046Z,23.20
2019-06-07T06:41:30.992Z,16.50
2019-06-07T06:45:40.182Z,18.70
2019-06-07T06:49:50.013Z,14.30
2019-06-07T06:53:57.960Z,9.05
2019-06-07T06:58:06.308Z,7.67
2019-06-07T07:02:14.114Z,9.23
2019-06-07T07:06:26.502Z,8.55
2019-06-07T07:10:41.270Z,8.18
2019-06-07T07:14:51.802Z,7.85
2019-06-07T07:18:58.002Z,11.35
2019-06-07T07:23:06.674Z,9.68
2019-06-07T07:27:14.654Z,8.28
2019-06-07T07:31:22.112Z,7.35
2019-06-07T07:35:30.227Z,7.37
2019-06-07T07:39:37.782Z,7.40
2019-06-07T07:43:52.920Z,7.08
2019-06-07T07:48:11.086Z,7.15
2019-06-07T07:52:05.667Z,7.35
2019-06-07T07:56:14.026Z,7.22
2019-06-07T08:00:49.994Z,10.00
2019-06-07T08:05:13.056Z,10.13
2019-06-07T08:08:42.766Z,10.10
2019-06-07T08:13:14.446Z,9.25
2019-06-07T08:17:01.916Z,12.40
2019-06-07T08:21:24.392Z,10.85
2019-06-07T08:25:20.124Z,48.92
2019-06-07T08:29:43.853Z,26.23
2019-06-07T08:33:37.505Z,9.40
2019-06-07T08:42:14.098Z,13.08
2019-06-07T08:46:07.790Z,12.63
2019-06-07T08:50:15.429Z,7.10
2019-06-07T08:54:23.680Z,6.55
2019-06-07T08:58:31.150Z,6.92
2019-06-07T09:02:39.260Z,5.95
2019-06-07T09:07:06.719Z,7.85
2019-06-07T09:10:58.932Z,4.30
2019-06-07T09:15:21.012Z,6.92
2019-06-07T09:19:16.573Z,5.15
2019-06-07T09:23:24.385Z,3.58
2019-06-07T09:27:32.726Z,4.08
2019-06-07T09:31:52.537Z,4.65
2019-06-07T09:35:50.410Z,5.40
2019-06-07T09:40:05.648Z,3.95
2019-06-07T09:44:21.589Z,4.72
2019-06-07T09:49:01.340Z,4.15
2019-06-07T09:52:26.984Z,5.95
2019-06-07T09:56:35.053Z,6.58
2019-06-07T10:00:43.149Z,6.80
2019-06-07T10:04:50.737Z,5.42
2019-06-07T10:10:07.109Z,5.08
2019-06-07T10:13:08.895Z,6.30
2019-06-07T10:17:18.242Z,7.78
2019-06-07T10:21:25.862Z,7.53
2019-06-07T10:25:33.918Z,6.50
2019-06-07T10:29:41.514Z,6.87
2019-06-07T10:33:49.573Z,6.40
2019-06-07T10:37:58.341Z,6.92
2019-06-07T10:42:07.651Z,6.20
2019-06-07T10:46:16.023Z,6.47
2019-06-07T10:50:24.301Z,7.37
2019-06-07T10:54:31.853Z,5.80
2019-06-07T10:58:40.942Z,8.00
2019-06-07T11:02:48.436Z,5.87
2019-06-07T11:06:56.498Z,5.60
2019-06-07T11:11:04.471Z,5.75
2019-06-07T11:15:13.052Z,5.42
2019-06-07T11:19:21.067Z,5.62
2019-06-07T11:23:28.651Z,8.68
2019-06-07T11:27:36.719Z,12.75
2019-06-07T11:31:47.394Z,5.33
2019-06-07T11:35:55.294Z,6.25
2019-06-07T11:40:03.310Z,9.08
2019-06-07T11:44:11.245Z,4.85
2019-06-07T11:48:19.266Z,5.10
2019-06-07T11:52:26.940Z,4.50
2019-06-07T11:56:36.650Z,5.97
2019-06-07T12:00:44.842Z,5.15
2019-06-07T12:04:53.865Z,5.25
2019-06-07T12:09:01.770Z,4.87
2019-06-07T12:13:12.598Z,5.00
2019-06-07T12:17:20.984Z,4.80
2019-06-07T12:21:28.708Z,5.42
2019-06-07T12:25:37.378Z,6.28
2019-06-07T12:29:45.170Z,8.33
2019-06-07T12:33:53.422Z,14.73
2019-06-07T12:38:01.597Z,18.20
2019-06-07T12:42:10.033Z,9.75
2019-06-07T12:46:24.291Z,11.68
2019-06-07T12:50:41.935Z,10.63
2019-06-07T12:54:37.687Z,11.00
2019-06-07T12:58:45.658Z,9.65
2019-06-07T13:02:53.740Z,14.70
2019-06-07T13:07:01.646Z,18.10
2019-06-07T13:11:17.415Z,15.25
2019-06-07T13:15:21.594Z,17.37
2019-06-07T13:19:28.684Z,7.80
2019-06-07T13:23:36.806Z,6.50
2019-06-07T13:27:44.632Z,6.03
2019-06-07T13:31:52.209Z,6.55
2019-06-07T13:36:00.712Z,6.40
2019-06-07T13:40:10.087Z,8.65
2019-06-07T13:44:18.690Z,6.47
2019-06-07T13:48:27.748Z,5.83
2019-06-07T13:52:35.915Z,6.53
2019-06-07T13:57:01.386Z,6.92
2019-06-07T14:00:54.677Z,6.45
2019-06-07T14:05:02.605Z,6.55
2019-06-07T14:09:10.810Z,6.25
2019-06-07T14:13:19.485Z,6.55
2019-06-07T14:17:28.251Z,4.55
2019-06-07T14:21:37.001Z,4.70
2019-06-07T14:25:46.028Z,3.87
2019-06-07T14:29:53.708Z,5.45
2019-06-07T14:34:02.271Z,4.67
2019-06-07T14:38:10.783Z,4.25
2019-06-07T14:42:18.911Z,6.70
2019-06-07T14:46:28.194Z,5.17
2019-06-07T14:50:36.401Z,9.80
2019-06-07T14:54:44.024Z,8.18
2019-06-07T14:58:52.201Z,10.15
2019-06-07T15:03:00.018Z,8.13
2019-06-07T15:07:09.573Z,9.18
2019-06-07T15:11:17.561Z,9.38
2019-06-07T15:15:26.417Z,8.53
2019-06-07T15:19:36.256Z,9.18
2019-06-07T15:23:45.605Z,7.35
2019-06-07T15:27:53.756Z,10.58
2019-06-07T15:32:01.271Z,9.08
2019-06-07T15:36:09.485Z,9.18
2019-06-07T15:40:17.580Z,11.43
2019-06-07T15:44:25.666Z,10.15
2019-06-07T15:48:33.980Z,11.65
2019-06-07T15:52:43.360Z,11.45
2019-06-07T15:56:51.328Z,9.65
2019-06-07T16:00:58.981Z,13.05
2019-06-07T16:05:07.468Z,13.30
2019-06-07T16:09:15.303Z,7.80
2019-06-07T16:13:24.519Z,9.30
2019-06-07T16:17:32.992Z,9.70
2019-06-07T16:21:41.518Z,8.53
2019-06-07T16:25:49.203Z,8.33
2019-06-07T16:29:57.214Z,10.38
2019-06-07T16:34:05.422Z,10.28
2019-06-07T16:38:13.393Z,8.48
2019-06-07T16:42:21.557Z,10.25
2019-06-07T16:46:29.751Z,10.32
2019-06-07T16:50:37.290Z,9.00
2019-06-07T16:54:45.802Z,9.33
2019-06-07T16:58:54.195Z,9.23
2019-06-07T17:03:02.256Z,8.88
2019-06-07T17:07:11.074Z,9.58
2019-06-07T17:11:19.163Z,8.80
2019-06-07T17:15:26.759Z,8.93
2019-06-07T17:19:34.634Z,8.63
2019-06-07T17:23:43.790Z,9.65
2019-06-07T17:27:52.180Z,9.70
2019-06-07T17:31:59.985Z,8.60
2019-06-07T17:36:08.355Z,7.70
2019-06-07T17:40:18.931Z,10.78
2019-06-07T17:44:26.818Z,7.70
2019-06-07T17:48:34.615Z,8.10
2019-06-07T17:52:43.788Z,8.63
2019-06-07T17:56:53.247Z,7.90
2019-06-07T18:01:03.298Z,8.23
2019-06-07T18:05:12.102Z,11.53
2019-06-07T18:09:20.636Z,10.30
2019-06-07T18:13:28.621Z,8.55
2019-06-07T18:17:37.186Z,11.35
2019-06-07T18:21:45.260Z,13.85
2019-06-07T18:25:54.706Z,14.83
2019-06-07T18:30:11.343Z,15.65
2019-06-07T18:34:12.859Z,19.67
2019-06-07T18:38:21.014Z,16.87
2019-06-07T18:42:29.506Z,19.05
2019-06-07T18:46:37.625Z,13.80
2019-06-07T18:50:46.415Z,9.68
2019-06-07T18:54:55.116Z,15.68
2019-06-07T18:59:02.989Z,15.28
2019-06-07T19:03:10.794Z,11.25
2019-06-07T19:07:18.432Z,10.60
2019-06-07T19:11:26.698Z,10.00
2019-06-07T19:15:34.682Z,10.10
2019-06-07T19:19:43.045Z,8.78
2019-06-07T19:23:51.755Z,8.45
2019-06-07T19:28:01.058Z,10.00
2019-06-07T19:32:08.707Z,12.15
2019-06-07T19:36:16.836Z,9.38
2019-06-07T19:40:25.884Z,8.75
2019-06-07T19:44:33.818Z,8.05
2019-06-07T19:48:42.117Z,8.93
2019-06-07T19:52:50.228Z,9.30
2019-06-07T19:56:59.459Z,8.60
2019-06-07T20:01:07.704Z,8.90
2019-06-07T20:05:16.460Z,9.60
2019-06-07T20:09:25.045Z,11.25
2019-06-07T20:13:32.550Z,11.57
2019-06-07T20:17:40.686Z,10.58
2019-06-07T20:21:48.612Z,13.30
2019-06-07T20:25:56.708Z,9.28
2019-06-07T20:30:05.504Z,11.67
2019-06-07T20:34:13.124Z,14.05
2019-06-07T20:38:21.369Z,15.95
2019-06-07T20:42:29.243Z,17.82
2019-06-07T20:46:37.339Z,26.40
2019-06-07T20:50:45.708Z,36.17
2019-06-07T20:54:53.597Z,38.15
2019-06-07T20:59:02.807Z,25.50
2019-06-07T21:03:10.648Z,18.32
2019-06-07T21:07:18.576Z,12.80
2019-06-07T21:11:26.609Z,11.00
2019-06-07T21:15:47.887Z,11.05
2019-06-07T21:19:44.660Z,10.65
2019-06-07T21:23:52.594Z,10.03
2019-06-07T21:28:01.024Z,9.38
2019-06-07T21:32:11.643Z,8.20
2019-06-07T21:36:19.498Z,8.30
2019-06-07T21:40:27.753Z,8.33
2019-06-07T21:44:35.527Z,8.95
2019-06-07T21:48:44.043Z,8.40
2019-06-07T21:52:52.811Z,8.33
2019-06-07T21:57:00.479Z,8.93
2019-06-07T22:01:18.396Z,8.23
2019-06-07T22:05:26.565Z,7.78
2019-06-07T22:09:34.341Z,9.30
2019-06-07T22:13:43.614Z,8.25
2019-06-07T22:17:51.369Z,8.55
2019-06-07T22:22:02.910Z,9.43
2019-06-07T22:26:11.273Z,9.05
2019-06-07T22:30:19.244Z,9.40
2019-06-07T22:34:27.592Z,8.78
2019-06-07T22:38:35.378Z,8.60
2019-06-07T22:42:43.320Z,8.68
2019-06-07T22:46:51.331Z,9.03
2019-06-07T22:51:00.382Z,9.37
2019-06-07T22:55:10.688Z,11.10
2019-06-07T22:59:20.645Z,8.63
2019-06-07T23:03:28.477Z,9.53
2019-06-07T23:07:37.356Z,9.90
2019-06-07T23:11:45.025Z,11.13
2019-06-07T23:15:53.442Z,9.27
2019-06-07T23:20:01.446Z,8.93
2019-06-07T23:24:09.807Z,10.93
2019-06-07T23:28:18.775Z,12.07
2019-06-07T23:32:26.569Z,11.70
2019-06-07T23:36:34.771Z,10.72
2019-06-07T23:40:43.120Z,11.65
2019-06-07T23:44:50.592Z,9.63
2019-06-07T23:48:58.591Z,10.23
2019-06-07T23:53:06.509Z,10.13
2019-06-07T23:57:14.072Z,15.10
